createdAt,value
2018-10-06T00:01:57.630Z,25.43
2018-10-06T00:04:27.250Z,21.53
2018-10-06T00:06:56.870Z,23.53
2018-10-06T00:09:26.498Z,20.93
2018-10-06T00:11:56.173Z,20.70
2018-10-06T00:14:25.785Z,23.17
2018-10-06T00:16:55.435Z,21.40
2018-10-06T00:19:25.029Z,22.40
2018-10-06T00:21:54.651Z,21.10
2018-10-06T00:24:24.263Z,21.03
2018-10-06T00:26:53.870Z,26.13
2018-10-06T00:29:23.464Z,25.77
2018-10-06T00:31:53.144Z,30.30
2018-10-06T00:34:22.795Z,31.20
2018-10-06T00:36:52.444Z,32.40
2018-10-06T00:39:22.076Z,38.20
2018-10-06T00:41:51.871Z,35.33
2018-10-06T00:44:21.506Z,33.33
2018-10-06T00:46:51.136Z,35.13
2018-10-06T00:49:20.790Z,39.27
2018-10-06T00:51:50.437Z,42.17
2018-10-06T00:54:20.138Z,34.67
2018-10-06T00:56:49.782Z,35.77
2018-10-06T00:59:19.398Z,35.33
2018-10-06T01:01:49.077Z,40.03
2018-10-06T01:04:18.707Z,50.83
2018-10-06T01:06:48.323Z,48.43
2018-10-06T01:09:17.966Z,42.87
2018-10-06T01:11:47.630Z,43.73
2018-10-06T01:14:17.241Z,39.47
2018-10-06T01:16:46.869Z,39.17
2018-10-06T01:19:16.463Z,37.80
2018-10-06T01:21:46.106Z,34.63
2018-10-06T01:24:15.704Z,35.03
2018-10-06T01:26:45.324Z,39.90
2018-10-06T01:29:14.920Z,37.13
2018-10-06T01:31:44.540Z,38.03
2018-10-06T01:34:14.150Z,39.33
2018-10-06T01:36:43.824Z,38.00
2018-10-06T01:39:13.447Z,41.20
2018-10-06T01:41:43.045Z,37.20
2018-10-06T01:44:12.658Z,32.90
2018-10-06T01:46:42.285Z,33.70
2018-10-06T01:49:11.888Z,32.40
2018-10-06T01:51:41.541Z,33.27
2018-10-06T01:54:11.152Z,34.67
2018-10-06T01:56:40.767Z,33.30
2018-10-06T01:59:10.407Z,33.37
2018-10-06T02:01:40.032Z,27.93
2018-10-06T02:04:09.799Z,33.10
2018-10-06T02:06:39.411Z,30.77
2018-10-06T02:09:09.027Z,27.33
2018-10-06T02:11:38.640Z,26.77
2018-10-06T02:14:08.246Z,30.37
2018-10-06T02:16:37.848Z,33.17
2018-10-06T02:19:07.490Z,28.90
2018-10-06T02:21:37.123Z,31.03
2018-10-06T02:24:06.814Z,29.30
2018-10-06T02:26:36.545Z,34.00
2018-10-06T02:29:06.188Z,31.57
2018-10-06T02:31:35.837Z,29.13
2018-10-06T02:34:05.496Z,30.70
2018-10-06T02:36:35.142Z,31.57
2018-10-06T02:39:05.288Z,29.90
2018-10-06T02:41:34.918Z,29.23
2018-10-06T02:44:04.548Z,28.27
2018-10-06T02:46:34.206Z,26.37
2018-10-06T02:51:33.492Z,27.30
2018-10-06T02:54:03.090Z,24.63
2018-10-06T02:56:32.692Z,29.80
2018-10-06T02:59:02.320Z,26.40
2018-10-06T03:01:31.970Z,31.43
2018-10-06T03:04:01.597Z,25.17
2018-10-06T03:06:31.232Z,28.83
2018-10-06T03:09:00.847Z,31.03
2018-10-06T03:11:30.490Z,31.17
2018-10-06T03:14:00.093Z,29.90
2018-10-06T03:16:29.719Z,27.57
2018-10-06T03:18:59.356Z,30.10
2018-10-06T03:21:28.974Z,25.83
2018-10-06T03:23:58.595Z,24.57
2018-10-06T03:26:28.223Z,27.70
2018-10-06T03:28:57.848Z,26.00
2018-10-06T03:31:27.518Z,28.63
2018-10-06T03:33:57.160Z,29.23
2018-10-06T03:36:26.792Z,28.90
2018-10-06T03:38:56.402Z,27.10
2018-10-06T03:41:26.012Z,34.00
2018-10-06T03:43:55.615Z,31.30
2018-10-06T03:46:25.273Z,29.87
2018-10-06T03:48:54.916Z,34.97
2018-10-06T03:51:24.549Z,39.13
2018-10-06T03:53:54.264Z,34.47
2018-10-06T03:56:23.946Z,32.27
2018-10-06T03:58:53.678Z,30.47
2018-10-06T04:01:23.332Z,35.10
2018-10-06T04:03:52.963Z,32.93
2018-10-06T04:06:22.598Z,35.17
2018-10-06T04:08:52.214Z,35.60
2018-10-06T04:11:21.835Z,39.40
2018-10-06T04:13:51.470Z,39.87
2018-10-06T04:16:21.089Z,41.50
2018-10-06T04:18:50.705Z,36.13
2018-10-06T04:21:20.365Z,37.03
2018-10-06T04:23:50.022Z,37.20
2018-10-06T04:26:19.652Z,35.47
2018-10-06T04:28:49.268Z,39.07
2018-10-06T04:31:18.931Z,35.20
2018-10-06T04:33:48.572Z,34.93
2018-10-06T04:36:18.206Z,34.50
2018-10-06T04:38:47.814Z,32.07
2018-10-06T04:41:17.470Z,40.37
2018-10-06T04:43:47.088Z,35.60
2018-10-06T04:46:16.700Z,35.00
2018-10-06T04:48:46.303Z,34.87
2018-10-06T04:51:16.010Z,36.07
2018-10-06T04:53:45.686Z,40.27
2018-10-06T04:56:15.405Z,40.27
2018-10-06T04:58:45.035Z,37.60
2018-10-06T05:01:14.658Z,35.87
2018-10-06T05:03:44.293Z,38.30
2018-10-06T05:06:13.920Z,36.50
2018-10-06T05:08:43.548Z,38.63
2018-10-06T05:11:13.271Z,39.37
2018-10-06T05:13:42.871Z,43.30
2018-10-06T05:16:12.553Z,42.63
2018-10-06T05:18:42.160Z,40.67
2018-10-06T05:21:11.763Z,43.77
2018-10-06T05:23:41.448Z,40.57
2018-10-06T05:26:11.072Z,38.67
2018-10-06T05:28:40.660Z,41.50
2018-10-06T05:31:10.260Z,40.83
2018-10-06T05:33:39.866Z,41.80
2018-10-06T05:36:09.495Z,36.37
2018-10-06T05:38:39.090Z,35.23
2018-10-06T05:41:08.706Z,36.17
2018-10-06T05:43:38.370Z,41.07
2018-10-06T05:46:08.310Z,43.83
2018-10-06T05:48:37.927Z,40.97
2018-10-06T05:51:07.780Z,40.63
2018-10-06T05:53:37.399Z,38.70
2018-10-06T05:56:07.009Z,37.67
2018-10-06T05:58:36.609Z,40.43
2018-10-06T06:01:06.256Z,37.00
2018-10-06T06:03:35.874Z,38.10
2018-10-06T06:06:05.492Z,37.53
2018-10-06T06:08:35.088Z,39.83
2018-10-06T06:11:04.712Z,41.77
2018-10-06T06:13:34.326Z,37.87
2018-10-06T06:16:03.971Z,39.17
2018-10-06T06:18:33.677Z,41.17
2018-10-06T06:21:03.314Z,38.77
2018-10-06T06:23:33.024Z,36.63
2018-10-06T06:26:02.678Z,39.37
2018-10-06T06:28:32.373Z,38.67
2018-10-06T06:31:02.008Z,42.57
2018-10-06T06:33:31.740Z,40.53
2018-10-06T06:36:01.363Z,38.67
2018-10-06T06:38:31.081Z,43.03
2018-10-06T06:41:00.621Z,44.10
2018-10-06T06:43:30.272Z,42.03
2018-10-06T06:45:59.879Z,35.70
2018-10-06T06:48:29.484Z,31.83
2018-10-06T06:50:59.150Z,37.17
2018-10-06T06:53:28.767Z,34.73
2018-10-06T06:55:58.419Z,33.30
2018-10-06T06:58:28.008Z,38.60
2018-10-06T07:00:57.638Z,38.13
2018-10-06T07:03:27.355Z,35.90
2018-10-06T07:05:58.713Z,38.60
2018-10-06T07:08:28.617Z,34.93
2018-10-06T07:10:58.578Z,34.07
2018-10-06T07:13:28.398Z,34.07
2018-10-06T07:15:58.320Z,33.07
2018-10-06T07:18:28.218Z,32.93
2018-10-06T07:20:59.908Z,30.83
2018-10-06T07:23:29.879Z,35.73
2018-10-06T07:25:59.883Z,33.80
2018-10-06T07:28:29.831Z,34.47
2018-10-06T07:30:59.792Z,30.63
2018-10-06T07:33:29.676Z,31.20
2018-10-06T07:36:00.788Z,32.13
2018-10-06T07:38:30.639Z,32.43
2018-10-06T07:41:00.435Z,29.80
2018-10-06T07:43:30.133Z,34.70
2018-10-06T07:45:59.967Z,28.30
2018-10-06T07:48:29.843Z,34.97
2018-10-06T07:50:59.552Z,28.87
2018-10-06T07:53:29.195Z,31.43
2018-10-06T07:55:58.796Z,30.97
2018-10-06T07:58:28.449Z,28.00
2018-10-06T08:00:58.044Z,27.57
2018-10-06T08:03:27.649Z,26.80
2018-10-06T08:05:57.300Z,25.77
2018-10-06T08:08:26.923Z,27.23
2018-10-06T08:10:56.614Z,21.57
2018-10-06T08:13:26.247Z,22.77
2018-10-06T08:15:55.881Z,72.43
2018-10-06T08:18:25.464Z,53.30
2018-10-06T08:20:55.104Z,56.77
2018-10-06T08:23:24.700Z,31.80
2018-10-06T08:25:54.314Z,28.97
2018-10-06T08:28:23.942Z,27.63
2018-10-06T08:30:53.610Z,24.13
2018-10-06T08:33:24.254Z,22.97
2018-10-06T08:35:53.882Z,46.33
2018-10-06T08:38:23.497Z,28.03
2018-10-06T08:40:54.251Z,23.73
2018-10-06T08:43:24.743Z,23.30
2018-10-06T08:45:56.474Z,19.13
2018-10-06T08:48:26.118Z,20.30
2018-10-06T08:50:55.886Z,18.83
2018-10-06T08:53:25.895Z,21.10
2018-10-06T08:55:55.612Z,21.37
2018-10-06T08:58:25.206Z,17.03
2018-10-06T09:00:54.901Z,17.50
2018-10-06T09:03:24.521Z,19.60
2018-10-06T09:05:54.166Z,17.90
2018-10-06T09:08:24.561Z,18.07
2018-10-06T09:10:54.270Z,15.90
2018-10-06T09:13:23.901Z,15.33
2018-10-06T09:15:53.626Z,17.77
2018-10-06T09:18:23.219Z,20.27
2018-10-06T09:20:52.814Z,14.73
2018-10-06T09:23:22.455Z,14.63
2018-10-06T09:25:52.114Z,14.70
2018-10-06T09:28:21.837Z,16.23
2018-10-06T09:30:51.386Z,13.83
2018-10-06T09:33:20.983Z,16.03
2018-10-06T09:35:50.608Z,16.63
2018-10-06T09:38:20.215Z,10.80
2018-10-06T09:40:49.835Z,12.60
2018-10-06T09:43:19.472Z,14.37
2018-10-06T09:45:49.116Z,11.27
2018-10-06T09:48:18.825Z,12.40
2018-10-06T09:50:48.407Z,11.50
2018-10-06T09:53:18.022Z,11.70
2018-10-06T09:55:47.617Z,12.40
2018-10-06T09:58:17.228Z,12.40
2018-10-06T10:00:52.194Z,12.13
2018-10-06T10:03:27.032Z,11.20
2018-10-06T10:05:56.694Z,12.40
2018-10-06T10:08:26.434Z,11.63
2018-10-06T10:10:56.057Z,11.07
2018-10-06T10:13:25.798Z,10.67
2018-10-06T10:15:55.415Z,12.37
2018-10-06T10:18:25.167Z,11.47
2018-10-06T10:20:54.679Z,8.83
2018-10-06T10:23:24.308Z,12.17
2018-10-06T10:25:54.003Z,11.47
2018-10-06T10:28:23.609Z,10.93
2018-10-06T10:30:53.256Z,13.07
2018-10-06T10:33:22.835Z,10.43
2018-10-06T10:35:52.545Z,12.67
2018-10-06T10:38:22.171Z,13.27
2018-10-06T10:40:51.812Z,10.03
2018-10-06T10:43:21.418Z,9.57
2018-10-06T10:45:51.025Z,9.43
2018-10-06T10:48:20.675Z,14.57
2018-10-06T10:50:50.379Z,10.23
2018-10-06T10:53:19.954Z,12.83
2018-10-06T10:55:49.601Z,10.60
2018-10-06T10:58:19.195Z,10.73
2018-10-06T11:00:48.796Z,8.87
2018-10-06T11:03:18.395Z,11.00
2018-10-06T11:05:48.054Z,10.20
2018-10-06T11:08:17.660Z,9.57
2018-10-06T11:10:47.264Z,12.53
2018-10-06T11:13:16.856Z,11.97
2018-10-06T11:15:46.538Z,9.53
2018-10-06T11:18:16.156Z,11.23
2018-10-06T11:20:45.781Z,11.47
2018-10-06T11:23:15.546Z,9.70
2018-10-06T11:25:45.190Z,8.37
2018-10-06T11:28:14.847Z,9.27
2018-10-06T11:30:44.464Z,11.43
2018-10-06T11:33:14.306Z,15.87
2018-10-06T11:35:43.926Z,6.87
2018-10-06T11:38:13.562Z,9.70
2018-10-06T11:40:43.168Z,10.70
2018-10-06T11:43:12.753Z,11.70
2018-10-06T11:45:42.357Z,14.03
2018-10-06T11:48:12.127Z,19.33
2018-10-06T11:50:41.743Z,23.43
2018-10-06T11:53:11.348Z,11.33
2018-10-06T11:55:40.940Z,10.53
2018-10-06T11:58:10.532Z,11.23
2018-10-06T12:00:40.255Z,19.00
2018-10-06T12:03:09.868Z,13.13
2018-10-06T12:05:39.582Z,13.57
2018-10-06T12:08:09.235Z,23.93
2018-10-06T12:10:38.847Z,20.57
2018-10-06T12:13:08.456Z,19.17
2018-10-06T12:15:38.079Z,13.97
2018-10-06T12:18:07.745Z,24.97
2018-10-06T12:20:37.405Z,26.00
2018-10-06T12:23:07.211Z,20.10
2018-10-06T12:25:36.821Z,16.75
2018-10-06T12:28:06.465Z,11.75
2018-10-06T12:30:36.130Z,15.83
2018-10-06T12:33:05.748Z,17.37
2018-10-06T12:35:35.454Z,14.90
2018-10-06T12:38:06.493Z,15.40
2018-10-06T12:40:36.125Z,11.10
2018-10-06T12:43:06.687Z,11.55
2018-10-06T12:45:36.512Z,45.12
2018-10-06T12:48:06.157Z,16.37
2018-10-06T12:50:35.757Z,17.35
2018-10-06T12:53:05.365Z,13.75
2018-10-06T12:55:34.985Z,16.93
2018-10-06T12:58:04.821Z,11.78
2018-10-06T13:00:34.449Z,13.88
2018-10-06T13:03:05.924Z,12.18
2018-10-06T13:05:35.657Z,11.20
2018-10-06T13:08:05.668Z,9.85
2018-10-06T13:10:35.540Z,8.80
2018-10-06T13:13:05.146Z,13.68
2018-10-06T13:15:34.798Z,14.35
2018-10-06T13:18:04.740Z,12.15
2018-10-06T13:20:34.776Z,10.00
2018-10-06T13:23:04.388Z,17.10
2018-10-06T13:25:34.018Z,9.48
2018-10-06T13:28:03.614Z,8.18
2018-10-06T13:30:33.688Z,13.95
2018-10-06T13:33:03.414Z,13.70
2018-10-06T13:35:33.023Z,9.28
2018-10-06T13:38:02.626Z,10.90
2018-10-06T13:40:32.245Z,14.03
2018-10-06T13:43:01.873Z,12.15
2018-10-06T13:45:31.670Z,16.62
2018-10-06T13:48:01.274Z,13.80
2018-10-06T13:50:30.895Z,9.93
2018-10-06T13:53:01.139Z,7.35
2018-10-06T13:55:30.851Z,13.58
2018-10-06T13:58:00.524Z,11.10
2018-10-06T14:00:30.210Z,15.40
2018-10-06T14:02:59.826Z,10.20
2018-10-06T14:05:29.467Z,14.35
2018-10-06T14:07:59.076Z,17.73
2018-10-06T14:10:28.770Z,158.63
2018-10-06T14:12:58.480Z,101.67
2018-10-06T14:15:28.093Z,33.88
2018-10-06T14:17:57.710Z,154.47
2018-10-06T14:20:27.359Z,159.45
2018-10-06T14:22:56.976Z,81.15
2018-10-06T14:25:26.677Z,58.35
2018-10-06T14:27:56.333Z,65.92
2018-10-06T14:30:25.936Z,31.33
2018-10-06T14:32:55.823Z,109.20
2018-10-06T14:35:25.488Z,102.60
2018-10-06T14:37:55.093Z,72.10
2018-10-06T14:40:24.856Z,50.78
2018-10-06T14:42:54.614Z,71.25
2018-10-06T14:45:24.367Z,51.30
2018-10-06T14:47:53.971Z,38.53
2018-10-06T14:50:23.599Z,33.70
2018-10-06T14:52:53.258Z,39.88
2018-10-06T14:55:22.871Z,24.18
2018-10-06T14:57:52.475Z,31.50
2018-10-06T15:00:22.168Z,81.45
2018-10-06T15:02:51.789Z,38.63
2018-10-06T15:05:21.409Z,61.58
2018-10-06T15:07:51.051Z,164.57
2018-10-06T15:10:20.691Z,41.37
2018-10-06T15:12:50.324Z,60.25
2018-10-06T15:15:20.279Z,61.92
2018-10-06T15:17:49.880Z,102.33
2018-10-06T15:20:20.050Z,182.33
2018-10-06T15:22:49.677Z,80.63
2018-10-06T15:25:19.325Z,83.00
2018-10-06T15:27:48.944Z,60.07
2018-10-06T15:30:18.591Z,54.13
2018-10-06T15:32:48.206Z,44.87
2018-10-06T15:35:17.799Z,43.70
2018-10-06T15:37:47.461Z,62.77
2018-10-06T15:40:17.072Z,56.33
2018-10-06T15:42:46.763Z,52.93
2018-10-06T15:45:16.332Z,40.13
2018-10-06T15:47:45.995Z,119.57
2018-10-06T15:50:15.607Z,70.17
2018-10-06T15:52:45.213Z,48.53
2018-10-06T15:55:14.840Z,42.27
2018-10-06T15:57:44.437Z,40.93
2018-10-06T16:00:14.077Z,67.03
2018-10-06T16:02:43.749Z,70.87
2018-10-06T16:05:13.335Z,92.37
2018-10-06T16:07:42.974Z,102.23
2018-10-06T16:10:12.580Z,76.33
2018-10-06T16:12:42.176Z,157.73
2018-10-06T16:15:11.842Z,127.63
2018-10-06T16:17:41.483Z,76.90
2018-10-06T16:20:11.159Z,83.70
2018-10-06T16:22:40.778Z,132.93
2018-10-06T16:25:10.437Z,169.83
2018-10-06T16:27:40.060Z,141.20
2018-10-06T16:30:10.047Z,101.70
2018-10-06T16:32:39.674Z,163.07
2018-10-06T16:35:09.370Z,279.77
2018-10-06T16:37:39.000Z,218.17
2018-10-06T16:40:08.730Z,132.07
2018-10-06T16:42:38.342Z,212.93
2018-10-06T16:45:08.084Z,158.63
2018-10-06T16:47:37.703Z,125.17
2018-10-06T16:50:07.363Z,98.60
2018-10-06T16:52:36.976Z,77.27
2018-10-06T16:55:06.627Z,68.43
2018-10-06T16:57:36.258Z,62.00
2018-10-06T17:00:05.946Z,80.43
2018-10-06T17:02:35.597Z,86.87
2018-10-06T17:05:05.468Z,81.10
2018-10-06T17:07:35.143Z,75.23
2018-10-06T17:10:04.815Z,60.97
2018-10-06T17:12:34.491Z,72.53
2018-10-06T17:15:04.164Z,124.60
2018-10-06T17:17:33.796Z,117.40
2018-10-06T17:20:03.497Z,63.83
2018-10-06T17:22:33.118Z,116.53
2018-10-06T17:25:02.774Z,91.10
2018-10-06T17:27:32.493Z,62.40
2018-10-06T17:30:02.119Z,67.87
2018-10-06T17:32:35.306Z,91.97
2018-10-06T17:35:04.974Z,90.50
2018-10-06T17:37:34.617Z,69.83
2018-10-06T17:40:04.394Z,58.30
2018-10-06T17:42:34.008Z,52.07
2018-10-06T17:45:03.660Z,56.17
2018-10-06T17:47:33.283Z,52.03
2018-10-06T17:50:02.984Z,57.60
2018-10-06T17:52:32.611Z,58.17
2018-10-06T17:55:02.275Z,53.93
2018-10-06T17:57:31.952Z,59.83
2018-10-06T18:00:01.568Z,47.87
2018-10-06T18:02:31.189Z,46.03
2018-10-06T18:05:00.888Z,41.33
2018-10-06T18:07:30.550Z,44.07
2018-10-06T18:10:00.211Z,40.47
2018-10-06T18:12:29.914Z,51.67
2018-10-06T18:14:59.524Z,45.27
2018-10-06T18:17:29.130Z,44.53
2018-10-06T18:19:58.850Z,43.20
2018-10-06T18:22:28.473Z,39.97
2018-10-06T18:24:58.068Z,54.00
2018-10-06T18:27:27.694Z,39.00
2018-10-06T18:29:57.328Z,36.13
2018-10-06T18:32:26.947Z,58.17
2018-10-06T18:34:56.594Z,54.10
2018-10-06T18:37:26.339Z,57.80
2018-10-06T18:39:55.961Z,60.80
2018-10-06T18:42:25.635Z,67.33
2018-10-06T18:44:55.233Z,60.70
2018-10-06T18:47:25.250Z,67.07
2018-10-06T18:49:54.890Z,68.47
2018-10-06T18:52:24.567Z,102.93
2018-10-06T18:54:54.145Z,79.40
2018-10-06T18:57:23.776Z,57.83
2018-10-06T18:59:53.419Z,39.40
2018-10-06T19:02:23.049Z,37.80
2018-10-06T19:04:52.704Z,42.03
2018-10-06T19:07:22.405Z,40.20
2018-10-06T19:09:52.082Z,45.87
2018-10-06T19:12:21.704Z,46.33
2018-10-06T19:14:51.397Z,42.77
2018-10-06T19:17:21.016Z,43.27
2018-10-06T19:19:50.645Z,44.30
2018-10-06T19:22:20.350Z,49.77
2018-10-06T19:24:50.156Z,54.57
2018-10-06T19:27:19.774Z,57.77
2018-10-06T19:29:49.672Z,56.20
2018-10-06T19:32:19.331Z,51.57
2018-10-06T19:34:48.962Z,46.33
2018-10-06T19:37:18.552Z,45.17
2018-10-06T19:39:48.185Z,55.50
2018-10-06T19:42:17.842Z,48.07
2018-10-06T19:44:47.491Z,54.77
2018-10-06T19:47:17.092Z,46.97
2018-10-06T19:49:46.724Z,38.07
2018-10-06T19:52:16.381Z,40.10
2018-10-06T19:54:46.003Z,39.33
2018-10-06T19:57:15.612Z,34.37
2018-10-06T19:59:45.244Z,42.20
2018-10-06T20:02:14.868Z,42.73
2018-10-06T20:04:44.462Z,37.53
2018-10-06T20:07:14.103Z,26.60
2018-10-06T20:09:43.772Z,41.40
2018-10-06T20:12:13.499Z,30.07
2018-10-06T20:14:43.234Z,33.80
2018-10-06T20:17:12.856Z,38.23
2018-10-06T20:19:42.504Z,27.03
2018-10-06T20:22:13.210Z,25.20
2018-10-06T20:24:42.887Z,28.07
2018-10-06T20:27:12.540Z,22.43
2018-10-06T20:29:42.208Z,23.67
2018-10-06T20:32:11.825Z,22.17
2018-10-06T20:34:41.451Z,26.93
2018-10-06T20:37:11.051Z,29.73
2018-10-06T20:39:40.642Z,27.17
2018-10-06T20:42:10.263Z,42.27
2018-10-06T20:44:39.886Z,35.57
2018-10-06T20:47:09.534Z,35.87
2018-10-06T20:49:39.194Z,44.90
2018-10-06T20:52:08.800Z,48.07
2018-10-06T20:54:38.419Z,79.37
2018-10-06T20:57:08.117Z,75.57
2018-10-06T20:59:37.732Z,67.63
2018-10-06T21:02:07.536Z,50.30
2018-10-06T21:04:37.964Z,34.77
2018-10-06T21:07:07.980Z,39.57
2018-10-06T21:09:37.754Z,40.13
2018-10-06T21:12:07.399Z,31.30
2018-10-06T21:14:37.035Z,30.40
2018-10-06T21:17:06.646Z,32.30
2018-10-06T21:19:36.278Z,40.57
2018-10-06T21:22:05.907Z,36.03
2018-10-06T21:24:35.646Z,60.33
2018-10-06T21:27:05.290Z,39.00
2018-10-06T21:29:35.036Z,48.97
2018-10-06T21:32:04.688Z,54.40
2018-10-06T21:34:34.347Z,51.57
2018-10-06T21:37:03.978Z,51.07
2018-10-06T21:39:40.579Z,56.63
2018-10-06T21:42:10.175Z,61.37
2018-10-06T21:44:39.792Z,68.33
2018-10-06T21:47:09.392Z,83.03
2018-10-06T21:49:39.072Z,88.23
2018-10-06T21:52:08.686Z,92.97
2018-10-06T21:54:38.450Z,109.13
2018-10-06T21:57:08.082Z,114.63
2018-10-06T21:59:37.739Z,109.23
2018-10-06T22:02:07.384Z,107.67
2018-10-06T22:04:36.984Z,108.53
2018-10-06T22:07:06.708Z,110.33
2018-10-06T22:09:36.354Z,108.17
2018-10-06T22:12:06.281Z,121.10
2018-10-06T22:14:35.906Z,123.80
2018-10-06T22:17:05.551Z,127.33
2018-10-06T22:19:35.167Z,133.23
2018-10-06T22:22:04.776Z,115.67
2018-10-06T22:24:34.392Z,131.50
2018-10-06T22:27:04.030Z,141.83
2018-10-06T22:29:33.670Z,133.10
2018-10-06T22:32:03.299Z,128.93
2018-10-06T22:34:32.948Z,114.07
2018-10-06T22:37:02.610Z,105.97
2018-10-06T22:39:32.239Z,110.63
2018-10-06T22:42:01.868Z,105.00
2018-10-06T22:44:31.484Z,111.53
2018-10-06T22:47:01.079Z,101.23
2018-10-06T22:49:30.740Z,97.17
2018-10-06T22:52:00.347Z,88.60
2018-10-06T22:54:29.997Z,92.10
2018-10-06T22:56:59.665Z,83.57
2018-10-06T22:59:29.271Z,81.80
2018-10-06T23:01:58.888Z,81.63
2018-10-06T23:04:28.526Z,81.30
2018-10-06T23:06:58.141Z,86.50
2018-10-06T23:09:27.762Z,84.10
2018-10-06T23:11:57.404Z,78.10
2018-10-06T23:14:27.016Z,71.87
2018-10-06T23:16:56.637Z,82.40
2018-10-06T23:19:26.309Z,84.37
2018-10-06T23:21:55.931Z,87.70
2018-10-06T23:24:25.559Z,88.87
2018-10-06T23:26:55.202Z,88.33
2018-10-06T23:29:24.820Z,88.77
2018-10-06T23:31:54.451Z,80.03
2018-10-06T23:34:24.134Z,69.83
2018-10-06T23:36:53.832Z,70.87
2018-10-06T23:39:23.441Z,64.37
2018-10-06T23:41:53.060Z,56.13
2018-10-06T23:44:22.668Z,49.77
2018-10-06T23:46:52.290Z,56.20
2018-10-06T23:49:21.899Z,50.13
2018-10-06T23:51:51.522Z,50.37
2018-10-06T23:54:21.178Z,43.50
2018-10-06T23:56:50.781Z,38.47
2018-10-06T23:59:20.377Z,43.60
